Airfield :
LOGIN :

Register | Disclaimer

   EN    FR    IT 

 










Legend :    VFR   Marginal VFR   IFR   Intensive IFR   Very Intensive IFR
Visi :
Ceiling :
>= 8 km
>= 3000ft
5 to 8 km
1000 to 3000 ft
1500m to 5 km
500 to 1000 ft
800 to 1500m
200 to 500 ft
< 800m
< 200 ft
Symbols :   Thunderstorms  Fog  Heavy snow  Heavy precipitations  Wind > 20 kt
SIGMETs :     Misc.  Thunderstorms  Icing  Turbulence  Mountain Waves  Volcanic Ashes







- Airport Elevation : 242 ft
- IATA code : DUB


EIDW - Dublin

CURRENT METAR :
  • 252100Z 02006KT CAVOK 04/02 Q1029 NOSIG

EXPIRED METARs :
  • 252030Z 03007KT CAVOK 04/03 Q1029 NOSIG
  • 252000Z 02008KT CAVOK 05/04 Q1029 NOSIG
  • 251930Z 03008KT CAVOK 05/03 Q1029 NOSIG
  • 251900Z 04008KT CAVOK 06/02 Q1029 NOSIG

TAF TAF EIDW
Valid from the 25 at 18:00 until the 26 at 18:00 UTC


251700Z 2518/2618 05007KT CAVOK
PROB30
TEMPO 2604/2607 4000 BR
BECMG 2606/2609 08012KT
No reported NOTAMs for that airfield.



MET'MAP, your aeronautical weather chart ! - Copyright ORBIFLY December 2007 - Disclaimer

ORBIFLY MET'MAP TEAM :

Programming & Development : Alexandra Zaïnal
Concept & Development : Baudouin d'Aumeries
Co-Development & Prog : Marc-Olivier Méhu
Technical & hardware support : Manuel Goepfert

Contact : metmap@orbifly.com




SOURCES & CREDITS :

   NOAA